createdAt,value
2019-05-02T00:00:13.621Z,19.42
2019-05-02T00:02:42.194Z,19.98
2019-05-02T00:05:12.048Z,19.82
2019-05-02T00:07:42.715Z,19.57
2019-05-02T00:10:14.381Z,20.43
2019-05-02T00:12:44.068Z,21.05
2019-05-02T00:15:14.540Z,21.02
2019-05-02T00:17:43.108Z,19.82
2019-05-02T00:20:11.900Z,20.35
2019-05-02T00:22:40.482Z,20.40
2019-05-02T00:25:13.946Z,21.45
2019-05-02T00:27:39.995Z,20.55
2019-05-02T00:30:09.634Z,18.95
2019-05-02T00:32:38.124Z,21.95
2019-05-02T00:35:26.848Z,20.37
2019-05-02T00:37:57.383Z,20.40
2019-05-02T00:40:27.462Z,20.97
2019-05-02T00:42:58.191Z,20.02
2019-05-02T00:45:25.992Z,19.60
2019-05-02T00:50:50.950Z,20.25
2019-05-02T00:53:20.453Z,20.57
2019-05-02T00:55:48.907Z,21.30
2019-05-02T00:58:17.355Z,21.23
2019-05-02T01:00:48.675Z,20.08
2019-05-02T01:03:17.950Z,21.52
2019-05-02T01:05:46.497Z,22.62
2019-05-02T01:08:14.931Z,22.65
2019-05-02T01:10:43.390Z,22.60
2019-05-02T01:13:14.741Z,24.43
2019-05-02T01:15:44.109Z,23.02
2019-05-02T01:18:12.147Z,23.45
2019-05-02T01:20:40.648Z,23.42
2019-05-02T01:23:09.081Z,23.45
2019-05-02T01:25:37.529Z,22.50
2019-05-02T01:28:20.960Z,22.80
2019-05-02T01:30:53.821Z,21.10
2019-05-02T01:33:30.040Z,21.60
2019-05-02T01:36:06.273Z,21.97
2019-05-02T01:38:34.974Z,24.50
2019-05-02T01:41:03.413Z,23.62
2019-05-02T01:43:32.292Z,22.30
2019-05-02T01:46:00.737Z,24.20
2019-05-02T01:48:29.268Z,24.55
2019-05-02T01:50:57.757Z,23.93
2019-05-02T01:53:29.208Z,23.98
2019-05-02T01:55:57.721Z,23.50
2019-05-02T01:58:45.876Z,24.72
2019-05-02T02:01:16.101Z,24.43
2019-05-02T02:03:45.761Z,24.27
2019-05-02T02:06:14.660Z,24.18
2019-05-02T02:08:43.110Z,24.02
2019-05-02T02:11:11.549Z,25.88
2019-05-02T02:13:40.000Z,25.88
2019-05-02T02:16:08.473Z,25.15
2019-05-02T02:18:38.553Z,25.32
2019-05-02T02:21:11.344Z,25.52
2019-05-02T02:26:43.568Z,25.55
2019-05-02T02:29:10.631Z,27.32
2019-05-02T02:31:46.395Z,27.20
2019-05-02T02:34:09.233Z,27.17
2019-05-02T02:36:37.660Z,27.58
2019-05-02T02:39:13.385Z,29.12
2019-05-02T02:41:37.207Z,27.62
2019-05-02T02:44:10.694Z,27.93
2019-05-02T02:46:40.772Z,29.32
2019-05-02T02:49:14.246Z,30.60
2019-05-02T02:51:39.382Z,30.37
2019-05-02T02:54:07.837Z,30.15
2019-05-02T02:56:40.448Z,30.72
2019-05-02T02:59:06.696Z,30.52
2019-05-02T03:01:35.212Z,30.55
2019-05-02T03:04:09.487Z,32.23
2019-05-02T03:06:38.396Z,32.20
2019-05-02T03:09:06.226Z,32.08
2019-05-02T03:11:36.308Z,32.63
2019-05-02T03:14:26.102Z,33.18
2019-05-02T03:16:54.528Z,32.90
2019-05-02T03:19:23.285Z,34.35
2019-05-02T03:22:01.037Z,34.27
2019-05-02T03:24:25.460Z,35.13
2019-05-02T03:26:55.429Z,33.85
2019-05-02T03:29:24.408Z,32.75
2019-05-02T03:32:12.498Z,33.18
2019-05-02T03:34:23.359Z,35.17
2019-05-02T03:36:51.795Z,34.83
2019-05-02T03:39:20.414Z,34.73
2019-05-02T03:41:55.674Z,36.85
2019-05-02T03:44:26.052Z,35.05
2019-05-02T03:46:54.335Z,37.73
2019-05-02T03:49:19.529Z,36.25
2019-05-02T03:51:48.041Z,36.75
2019-05-02T03:54:20.051Z,37.63
2019-05-02T03:56:51.277Z,37.38
2019-05-02T03:59:18.075Z,38.25
2019-05-02T04:01:46.679Z,37.80
2019-05-02T04:04:20.546Z,36.55
2019-05-02T04:06:46.591Z,36.20
2019-05-02T04:09:32.147Z,37.65
2019-05-02T04:11:57.399Z,37.03
2019-05-02T04:14:37.556Z,37.45
2019-05-02T04:16:57.744Z,35.95
2019-05-02T04:19:28.797Z,39.65
2019-05-02T04:22:01.907Z,37.70
2019-05-02T04:24:28.755Z,38.28
2019-05-02T04:26:57.192Z,37.80
2019-05-02T04:29:31.099Z,38.20
2019-05-02T04:31:55.813Z,38.13
2019-05-02T04:34:35.773Z,36.68
2019-05-02T04:37:04.363Z,38.92
2019-05-02T04:39:32.841Z,39.13
2019-05-02T04:42:25.260Z,38.28
2019-05-02T04:45:13.954Z,38.92
2019-05-02T04:47:23.856Z,40.35
2019-05-02T04:49:52.324Z,41.55
2019-05-02T04:52:21.306Z,39.80
2019-05-02T04:54:49.964Z,40.23
2019-05-02T04:57:18.842Z,41.45
2019-05-02T04:59:50.204Z,38.55
2019-05-02T05:02:23.008Z,39.98
2019-05-02T05:04:49.429Z,38.70
2019-05-02T05:07:18.077Z,38.45
2019-05-02T05:09:50.057Z,40.00
2019-05-02T05:12:17.624Z,41.42
2019-05-02T05:14:47.444Z,40.60
2019-05-02T05:17:35.313Z,39.27
2019-05-02T05:20:14.141Z,39.92
2019-05-02T05:22:44.369Z,39.78
2019-05-02T05:25:12.182Z,39.78
2019-05-02T05:27:39.128Z,39.73
2019-05-02T05:30:15.152Z,39.67
2019-05-02T05:32:38.251Z,37.90
2019-05-02T05:35:09.149Z,39.18
2019-05-02T05:37:38.194Z,38.65
2019-05-02T05:40:30.409Z,39.75
2019-05-02T05:42:57.373Z,38.02
2019-05-02T05:45:27.896Z,38.85
2019-05-02T05:47:57.494Z,39.38
2019-05-02T05:50:27.568Z,37.85
2019-05-02T05:52:59.340Z,38.53
2019-05-02T05:55:28.455Z,38.53
2019-05-02T05:58:03.180Z,39.98
2019-05-02T06:00:27.834Z,40.52
2019-05-02T06:03:09.299Z,37.13
2019-05-02T06:05:27.631Z,38.55
2019-05-02T06:07:57.536Z,38.85
2019-05-02T06:10:26.099Z,38.95
2019-05-02T06:12:54.537Z,37.70
2019-05-02T06:15:22.992Z,39.13
2019-05-02T06:17:51.435Z,37.13
2019-05-02T06:20:19.863Z,38.23
2019-05-02T06:22:48.293Z,37.95
2019-05-02T06:25:17.100Z,36.70
2019-05-02T06:27:45.535Z,38.75
2019-05-02T06:30:34.867Z,38.02
2019-05-02T06:33:03.301Z,38.05
2019-05-02T06:35:31.749Z,39.03
2019-05-02T06:38:00.209Z,38.50
2019-05-02T06:40:28.657Z,40.50
2019-05-02T06:42:57.089Z,38.98
2019-05-02T06:45:25.552Z,39.38
2019-05-02T06:47:53.989Z,39.53
2019-05-02T06:50:24.739Z,39.25
2019-05-02T06:52:52.604Z,39.23
2019-05-02T06:55:21.048Z,40.20
2019-05-02T06:57:51.695Z,38.67
2019-05-02T07:00:19.799Z,39.40
2019-05-02T07:02:48.246Z,38.17
2019-05-02T07:05:16.689Z,40.98
2019-05-02T07:07:45.256Z,40.10
2019-05-02T07:10:13.988Z,39.35
2019-05-02T07:12:46.171Z,39.30
2019-05-02T07:15:20.229Z,38.40
2019-05-02T07:17:48.718Z,38.58
2019-05-02T07:20:17.221Z,41.48
2019-05-02T07:22:45.858Z,42.13
2019-05-02T07:25:16.853Z,41.05
2019-05-02T07:27:45.300Z,41.35
2019-05-02T07:30:15.171Z,40.80
2019-05-02T07:32:43.619Z,42.40
2019-05-02T07:35:12.231Z,45.48
2019-05-02T07:37:44.069Z,44.38
2019-05-02T07:40:12.115Z,46.35
2019-05-02T07:42:41.892Z,46.60
2019-05-02T07:45:12.457Z,46.10
2019-05-02T07:47:42.492Z,49.55
2019-05-02T07:50:13.453Z,48.55
2019-05-02T07:52:41.902Z,47.20
2019-05-02T07:55:10.685Z,44.83
2019-05-02T07:57:39.199Z,42.88
2019-05-02T08:00:11.784Z,42.70
2019-05-02T08:02:40.231Z,41.30
2019-05-02T08:05:09.209Z,43.40
2019-05-02T08:07:37.724Z,43.15
2019-05-02T08:10:06.809Z,43.10
2019-05-02T08:12:35.253Z,42.83
2019-05-02T08:15:07.472Z,39.50
2019-05-02T08:17:35.801Z,42.60
2019-05-02T08:20:08.614Z,45.25
2019-05-02T08:22:37.365Z,39.70
2019-05-02T08:25:10.473Z,41.35
2019-05-02T08:27:38.757Z,41.10
2019-05-02T08:30:11.064Z,41.45
2019-05-02T08:32:39.514Z,42.88
2019-05-02T08:35:08.681Z,42.33
2019-05-02T08:37:41.185Z,43.15
2019-05-02T08:40:10.729Z,40.88
2019-05-02T08:42:38.125Z,40.28
2019-05-02T08:45:07.697Z,41.20
2019-05-02T08:47:36.140Z,43.78
2019-05-02T08:50:07.798Z,41.33
2019-05-02T08:52:36.745Z,40.85
2019-05-02T08:55:09.727Z,42.60
2019-05-02T08:57:37.816Z,42.35
2019-05-02T09:00:08.194Z,42.85
2019-05-02T09:02:41.713Z,42.10
2019-05-02T09:05:07.042Z,42.03
2019-05-02T09:07:37.008Z,42.53
2019-05-02T09:10:07.945Z,41.48
2019-05-02T09:12:36.944Z,41.98
2019-05-02T09:15:06.990Z,40.95
2019-05-02T09:17:38.800Z,43.38
2019-05-02T09:20:15.050Z,43.95
2019-05-02T09:22:37.099Z,43.95
2019-05-02T09:25:07.085Z,43.50
2019-05-02T09:27:35.516Z,40.83
2019-05-02T09:30:06.510Z,41.00
2019-05-02T09:32:37.153Z,40.88
2019-05-02T09:35:06.357Z,39.90
2019-05-02T09:37:34.950Z,40.12
2019-05-02T09:40:06.753Z,38.38
2019-05-02T09:42:34.310Z,39.45
2019-05-02T09:45:03.251Z,39.85
2019-05-02T09:47:33.232Z,40.45
2019-05-02T09:50:06.469Z,40.45
2019-05-02T09:52:39.691Z,40.10
2019-05-02T09:55:12.004Z,40.12
2019-05-02T09:57:40.244Z,46.40
2019-05-02T10:00:16.436Z,45.67
2019-05-02T10:02:44.881Z,41.65
2019-05-02T10:05:13.965Z,38.65
2019-05-02T10:07:42.405Z,37.67
2019-05-02T10:10:12.566Z,39.27
2019-05-02T10:12:42.730Z,37.48
2019-05-02T10:15:14.079Z,37.15
2019-05-02T10:17:46.647Z,34.85
2019-05-02T10:20:12.939Z,38.65
2019-05-02T10:22:43.437Z,36.95
2019-05-02T10:25:11.879Z,34.95
2019-05-02T10:27:46.058Z,35.50
2019-05-02T10:30:15.574Z,37.90
2019-05-02T10:32:47.212Z,32.60
2019-05-02T10:35:15.641Z,33.13
2019-05-02T10:37:44.089Z,32.03
2019-05-02T10:40:16.029Z,32.00
2019-05-02T10:42:42.777Z,32.55
2019-05-02T10:45:12.956Z,30.10
2019-05-02T10:47:42.384Z,29.35
2019-05-02T10:50:12.740Z,32.50
2019-05-02T10:52:42.499Z,31.93
2019-05-02T10:55:12.890Z,30.70
2019-05-02T10:57:42.077Z,31.37
2019-05-02T11:00:14.141Z,31.30
2019-05-02T11:02:44.222Z,30.80
2019-05-02T11:05:24.699Z,31.80
2019-05-02T11:07:47.634Z,32.17
2019-05-02T11:10:17.219Z,31.52
2019-05-02T11:12:47.341Z,31.82
2019-05-02T11:15:26.875Z,31.30
2019-05-02T11:17:55.416Z,30.48
2019-05-02T11:20:24.158Z,31.42
2019-05-02T11:22:54.497Z,29.30
2019-05-02T11:25:22.774Z,31.35
2019-05-02T11:27:52.515Z,29.25
2019-05-02T11:30:25.271Z,28.23
2019-05-02T11:32:52.087Z,29.90
2019-05-02T11:35:22.379Z,30.80
2019-05-02T11:37:51.668Z,28.55
2019-05-02T11:40:20.260Z,26.50
2019-05-02T11:42:48.980Z,27.65
2019-05-02T11:45:17.415Z,29.20
2019-05-02T11:47:45.867Z,30.50
2019-05-02T11:50:14.369Z,28.30
2019-05-02T11:52:42.822Z,27.25
2019-05-02T11:55:12.935Z,27.27
2019-05-02T11:57:42.559Z,26.60
2019-05-02T12:00:12.647Z,24.87
2019-05-02T12:02:42.736Z,26.77
2019-05-02T12:05:13.200Z,28.00
2019-05-02T12:07:41.818Z,24.52
2019-05-02T12:10:12.496Z,23.60
2019-05-02T12:12:42.850Z,24.45
2019-05-02T12:15:12.442Z,24.50
2019-05-02T12:17:42.003Z,22.95
2019-05-02T12:20:11.851Z,24.77
2019-05-02T12:22:41.932Z,24.82
2019-05-02T12:25:12.630Z,26.23
2019-05-02T12:27:42.500Z,25.08
2019-05-02T12:30:11.860Z,25.80
2019-05-02T12:32:42.184Z,27.58
2019-05-02T12:35:11.846Z,24.27
2019-05-02T12:37:42.265Z,25.50
2019-05-02T12:40:14.014Z,23.12
2019-05-02T12:42:42.460Z,25.32
2019-05-02T12:45:12.351Z,23.92
2019-05-02T12:47:42.817Z,23.05
2019-05-02T12:50:12.086Z,22.70
2019-05-02T12:52:42.751Z,28.95
2019-05-02T12:55:12.776Z,22.07
2019-05-02T12:57:42.920Z,21.33
2019-05-02T13:00:12.922Z,20.50
2019-05-02T13:02:52.618Z,19.92
2019-05-02T13:05:23.673Z,21.00
2019-05-02T13:07:55.285Z,22.27
2019-05-02T13:10:42.190Z,23.15
2019-05-02T13:13:12.292Z,22.10
2019-05-02T13:15:42.357Z,22.77
2019-05-02T13:18:12.457Z,24.10
2019-05-02T13:20:42.013Z,24.27
2019-05-02T13:23:14.521Z,24.35
2019-05-02T13:25:42.963Z,22.98
2019-05-02T13:28:12.273Z,22.98
2019-05-02T13:33:42.729Z,23.67
2019-05-02T13:36:32.489Z,24.90
2019-05-02T13:39:01.831Z,24.82
2019-05-02T13:41:32.142Z,23.27
2019-05-02T13:44:02.159Z,22.10
2019-05-02T13:46:32.204Z,25.05
2019-05-02T13:49:02.148Z,23.77
2019-05-02T13:51:32.046Z,23.10
2019-05-02T13:54:02.341Z,22.27
2019-05-02T13:56:32.708Z,22.62
2019-05-02T13:59:02.718Z,23.07
2019-05-02T14:01:31.671Z,22.27
2019-05-02T14:04:03.580Z,19.67
2019-05-02T14:06:35.703Z,20.72
2019-05-02T14:09:02.916Z,20.80
2019-05-02T14:11:43.499Z,20.57
2019-05-02T14:14:12.262Z,20.52
2019-05-02T14:16:41.995Z,19.65
2019-05-02T14:19:12.478Z,20.25
2019-05-02T14:21:42.132Z,19.75
2019-05-02T14:24:11.803Z,20.92
2019-05-02T14:26:40.474Z,18.42
2019-05-02T14:29:12.547Z,18.07
2019-05-02T14:31:39.080Z,17.07
2019-05-02T14:34:25.569Z,16.65
2019-05-02T14:36:58.975Z,15.72
2019-05-02T14:39:24.213Z,16.25
2019-05-02T14:41:52.727Z,15.88
2019-05-02T14:44:23.258Z,15.03
2019-05-02T14:46:52.338Z,14.40
2019-05-02T14:49:22.076Z,13.08
2019-05-02T14:51:52.532Z,13.38
2019-05-02T14:54:22.915Z,12.28
2019-05-02T14:56:53.177Z,12.47
2019-05-02T14:59:22.772Z,10.75
2019-05-02T15:01:57.796Z,13.72
2019-05-02T15:04:23.275Z,14.78
2019-05-02T15:06:52.516Z,15.60
2019-05-02T15:09:28.702Z,15.70
2019-05-02T15:12:02.826Z,15.18
2019-05-02T15:14:33.263Z,14.18
2019-05-02T15:17:02.527Z,13.93
2019-05-02T15:19:32.902Z,15.38
2019-05-02T15:22:02.265Z,14.68
2019-05-02T15:24:33.400Z,13.48
2019-05-02T15:27:03.972Z,14.85
2019-05-02T15:29:32.197Z,15.03
2019-05-02T15:32:19.049Z,15.20
2019-05-02T15:35:05.119Z,14.05
2019-05-02T15:37:35.841Z,15.65
2019-05-02T15:42:36.388Z,17.42
2019-05-02T15:45:07.212Z,15.78
2019-05-02T15:47:37.176Z,17.50
2019-05-02T15:50:06.388Z,15.50
2019-05-02T15:52:36.475Z,17.07
2019-05-02T15:55:08.062Z,17.57
2019-05-02T15:57:43.011Z,16.40
2019-05-02T16:00:10.221Z,15.50
2019-05-02T16:02:38.667Z,15.40
2019-05-02T16:05:07.843Z,14.75
2019-05-02T16:07:37.967Z,13.68
2019-05-02T16:10:08.332Z,14.25
2019-05-02T16:12:37.356Z,15.55
2019-05-02T16:15:13.284Z,13.85
2019-05-02T16:17:36.814Z,15.23
2019-05-02T16:20:10.748Z,14.80
2019-05-02T16:22:46.155Z,14.95
2019-05-02T16:25:09.309Z,14.20
2019-05-02T16:27:47.441Z,15.05
2019-05-02T16:30:18.661Z,13.95
2019-05-02T16:32:48.763Z,15.30
2019-05-02T16:35:18.836Z,14.87
2019-05-02T16:37:54.083Z,16.40
2019-05-02T16:40:23.302Z,15.18
2019-05-02T16:42:48.024Z,18.37
2019-05-02T16:45:18.104Z,14.15
2019-05-02T16:47:49.764Z,12.75
2019-05-02T16:50:18.642Z,13.43
2019-05-02T16:52:47.580Z,14.40
2019-05-02T16:55:21.145Z,14.07
2019-05-02T16:57:46.981Z,15.13
2019-05-02T17:00:22.653Z,14.15
2019-05-02T17:02:51.220Z,16.05
2019-05-02T17:05:19.664Z,13.78
2019-05-02T17:08:10.721Z,16.67
2019-05-02T17:10:53.693Z,19.77
2019-05-02T17:13:21.633Z,16.23
2019-05-02T17:15:52.146Z,15.85
2019-05-02T17:18:22.804Z,15.58
2019-05-02T17:20:54.957Z,15.95
2019-05-02T17:23:22.775Z,15.40
2019-05-02T17:25:52.160Z,15.68
2019-05-02T17:28:22.306Z,14.78
2019-05-02T17:30:52.478Z,14.95
2019-05-02T17:33:21.728Z,16.60
2019-05-02T17:35:52.311Z,15.68
2019-05-02T17:38:27.673Z,15.03
2019-05-02T17:40:54.119Z,16.15
2019-05-02T17:43:22.659Z,15.70
2019-05-02T17:45:51.290Z,14.70
2019-05-02T17:48:19.847Z,16.82
2019-05-02T17:50:56.094Z,15.05
2019-05-02T17:53:23.129Z,15.30
2019-05-02T17:55:52.560Z,14.93
2019-05-02T17:58:21.321Z,14.80
2019-05-02T18:00:55.804Z,14.10
2019-05-02T18:03:24.250Z,14.15
2019-05-02T18:05:52.896Z,14.73
2019-05-02T18:08:21.870Z,14.75
2019-05-02T18:10:54.979Z,14.65
2019-05-02T18:13:22.679Z,14.00
2019-05-02T18:15:50.797Z,13.95
2019-05-02T18:18:19.279Z,13.72
2019-05-02T18:20:47.781Z,13.35
2019-05-02T18:23:18.686Z,13.88
2019-05-02T18:25:46.382Z,13.38
2019-05-02T18:28:24.542Z,14.30
2019-05-02T18:30:45.026Z,13.13
2019-05-02T18:33:13.528Z,14.90
2019-05-02T18:35:45.126Z,13.55
2019-05-02T18:38:15.852Z,14.45
2019-05-02T18:40:42.855Z,16.35
2019-05-02T18:43:11.309Z,16.30
2019-05-02T18:45:39.848Z,15.45
2019-05-02T18:48:08.545Z,15.88
2019-05-02T18:50:44.434Z,15.93
2019-05-02T18:53:10.035Z,16.40
2019-05-02T18:55:38.977Z,15.88
2019-05-02T18:58:08.779Z,15.70
2019-05-02T19:00:39.607Z,14.78
2019-05-02T19:03:13.463Z,15.20
2019-05-02T19:05:42.054Z,14.23
2019-05-02T19:08:11.956Z,15.40
2019-05-02T19:10:44.728Z,15.10
2019-05-02T19:13:12.749Z,13.32
2019-05-02T19:15:45.218Z,13.83
2019-05-02T19:18:17.875Z,13.98
2019-05-02T19:20:57.546Z,14.20
2019-05-02T19:23:43.166Z,15.65
2019-05-02T19:26:15.061Z,13.18
2019-05-02T19:28:46.363Z,15.10
2019-05-02T19:31:14.817Z,13.60
2019-05-02T19:33:44.182Z,13.60
2019-05-02T19:36:16.228Z,14.00
2019-05-02T19:38:42.934Z,12.88
2019-05-02T19:41:11.737Z,12.90
2019-05-02T19:43:49.102Z,14.00
2019-05-02T19:46:12.100Z,14.18
2019-05-02T19:48:42.925Z,14.98
2019-05-02T19:51:18.487Z,12.58
2019-05-02T19:53:42.633Z,11.73
2019-05-02T19:56:12.762Z,13.25
2019-05-02T19:58:46.319Z,15.13
2019-05-02T20:01:17.420Z,16.20
2019-05-02T20:03:44.054Z,14.45
2019-05-02T20:06:12.965Z,13.60
2019-05-02T20:08:42.068Z,12.63
2019-05-02T20:11:34.351Z,45.60
2019-05-02T20:14:09.698Z,44.03
2019-05-02T20:16:45.941Z,19.95
2019-05-02T20:19:17.365Z,28.20
2019-05-02T20:21:51.929Z,25.30
2019-05-02T20:24:22.549Z,15.60
2019-05-02T20:26:52.381Z,15.50
2019-05-02T20:29:20.957Z,14.60
2019-05-02T20:31:49.432Z,14.13
2019-05-02T20:34:17.873Z,14.13
2019-05-02T20:36:46.397Z,13.45
2019-05-02T20:39:14.861Z,13.93
2019-05-02T20:41:43.302Z,13.35
2019-05-02T20:44:12.162Z,12.00
2019-05-02T20:46:42.127Z,13.45
2019-05-02T20:49:12.616Z,12.85
2019-05-02T20:51:42.327Z,13.48
2019-05-02T20:54:12.577Z,13.72
2019-05-02T20:56:42.649Z,11.10
2019-05-02T20:59:12.870Z,13.32
2019-05-02T21:01:42.926Z,12.37
2019-05-02T21:04:12.095Z,13.88
2019-05-02T21:06:44.098Z,12.58
2019-05-02T21:09:14.341Z,13.68
2019-05-02T21:11:44.412Z,18.92
2019-05-02T21:14:12.874Z,13.72
2019-05-02T21:16:41.349Z,12.80
2019-05-02T21:19:09.793Z,12.88
2019-05-02T21:21:40.117Z,12.85
2019-05-02T21:24:08.730Z,13.08
2019-05-02T21:26:37.169Z,12.35
2019-05-02T21:29:05.623Z,12.82
2019-05-02T21:31:34.083Z,12.00
2019-05-02T21:34:04.085Z,12.18
2019-05-02T21:36:32.766Z,12.63
2019-05-02T21:39:02.775Z,13.13
2019-05-02T21:41:33.075Z,12.55
2019-05-02T21:44:02.491Z,12.47
2019-05-02T21:46:31.803Z,12.03
2019-05-02T21:49:00.452Z,11.93
2019-05-02T21:51:39.595Z,12.18
2019-05-02T21:54:18.927Z,12.15
2019-05-02T21:56:48.991Z,11.25
2019-05-02T21:59:17.447Z,13.00
2019-05-02T22:01:51.887Z,12.63
2019-05-02T22:04:39.613Z,12.47
2019-05-02T22:07:08.068Z,12.80
2019-05-02T22:09:36.504Z,12.80
2019-05-02T22:12:04.960Z,13.83
2019-05-02T22:14:33.406Z,14.13
2019-05-02T22:17:02.266Z,13.15
2019-05-02T22:19:32.357Z,12.88
2019-05-02T22:22:04.043Z,13.15
2019-05-02T22:24:32.495Z,13.13
2019-05-02T22:27:01.916Z,13.30
2019-05-02T22:29:32.486Z,12.33
2019-05-02T22:32:02.497Z,13.13
2019-05-02T22:34:52.760Z,13.72
2019-05-02T22:37:22.134Z,14.07
2019-05-02T22:39:52.290Z,13.90
2019-05-02T22:42:21.902Z,13.68
2019-05-02T22:44:50.447Z,14.80
2019-05-02T22:47:18.889Z,13.65
2019-05-02T22:49:47.327Z,13.55
2019-05-02T22:52:15.823Z,13.58
2019-05-02T22:54:44.264Z,14.43
2019-05-02T22:57:14.301Z,14.38
2019-05-02T22:59:42.941Z,13.95
2019-05-02T23:02:12.778Z,14.63
2019-05-02T23:04:41.781Z,14.18
2019-05-02T23:07:12.526Z,14.05
2019-05-02T23:09:43.535Z,15.05
2019-05-02T23:12:13.170Z,14.63
2019-05-02T23:14:41.917Z,14.30
2019-05-02T23:17:12.505Z,13.85
2019-05-02T23:19:42.358Z,13.60
2019-05-02T23:22:12.505Z,13.45
2019-05-02T23:24:58.533Z,14.40
2019-05-02T23:27:37.607Z,14.45
2019-05-02T23:30:11.537Z,13.15
2019-05-02T23:32:39.791Z,14.68
2019-05-02T23:35:08.408Z,15.25
2019-05-02T23:37:36.844Z,13.68
2019-05-02T23:40:06.526Z,14.10
2019-05-02T23:42:34.959Z,13.78
2019-05-02T23:45:04.506Z,14.20
2019-05-02T23:47:33.082Z,14.78
2019-05-02T23:50:02.805Z,16.10
2019-05-02T23:52:31.666Z,15.88
2019-05-02T23:55:00.204Z,15.23
2019-05-02T23:57:28.632Z,16.00
2019-05-02T23:59:57.071Z,16.20
